Time;durP1;ratioP1;P1;durP2;ratioP2;P2;SDS_P1;SDS_P2;PMS_P1;PMS_P2;Temp;Humidity;BMP_temperature;BMP_pressure;BME280_temperature;BME280_humidity;BME280_pressure;Samples;Min_cycle;Max_cycle;Signal;HPM_P1;HPM_P2
2021/11/17 02:28:23;;;;;;;12.10;7.40;;;;;;;8.33;66.42;96973.22;5082041;28;20520;-67
2021/11/17 02:31:26;;;;;;;12.27;7.80;;;;;;;8.21;66.80;96975.19;5084475;28;20423;-69
2021/11/17 02:34:08;;;;;;;11.23;7.50;;;;;;;8.13;67.28;96971.50;5072454;28;20447;-67
2021/11/17 02:36:43;;;;;;;10.83;8.33;;;;;;;8.19;67.58;96971.91;5091108;28;20470;-65
2021/11/17 02:39:24;;;;;;;11.43;8.10;;;;;;;8.16;67.17;96967.78;5091219;28;20510;-66
2021/11/17 02:42:15;;;;;;;10.00;7.70;;;;;;;8.17;67.10;96963.41;5088663;28;20503;-69
2021/11/17 02:44:56;;;;;;;10.20;7.23;;;;;;;7.94;68.03;96968.97;5091387;28;20913;-66
2021/11/17 02:47:42;;;;;;;11.97;8.33;;;;;;;7.80;68.67;96971.06;5089308;28;20573;-65
2021/11/17 02:50:36;;;;;;;13.00;8.10;;;;;;;7.94;68.55;96980.22;5091361;28;20494;-66
2021/11/17 02:53:44;;;;;;;11.23;8.03;;;;;;;8.04;68.17;96974.16;5082619;28;20483;-67
2021/11/17 02:56:09;;;;;;;14.40;8.43;;;;;;;8.10;68.02;96979.63;5090117;28;20430;-65
2021/11/17 02:58:37;;;;;;;13.13;8.57;;;;;;;8.23;68.15;96973.25;5090687;28;20855;-66
2021/11/17 03:01:24;;;;;;;12.80;8.37;;;;;;;8.02;68.71;96973.47;5089886;28;20194;-67
2021/11/17 03:04:11;;;;;;;13.30;8.30;;;;;;;8.09;67.95;96977.97;5082530;28;20443;-67
2021/11/17 03:06:45;;;;;;;12.27;7.60;;;;;;;8.17;68.11;96973.84;5084440;28;21108;-68
2021/11/17 03:09:20;;;;;;;10.87;7.90;;;;;;;8.19;67.97;96967.50;5090740;28;20450;-68
2021/11/17 03:12:07;;;;;;;12.87;7.90;;;;;;;7.92;69.42;96973.50;5090727;28;20448;-67
2021/11/17 03:14:41;;;;;;;12.20;8.80;;;;;;;8.00;69.13;96966.59;5087455;28;20433;-67
2021/11/17 03:17:13;;;;;;;10.37;7.67;;;;;;;7.97;69.50;96971.28;5102855;28;20415;-68
2021/11/17 03:19:49;;;;;;;14.63;9.07;;;;;;;8.17;68.61;96973.84;5096130;28;20412;-65
2021/11/17 03:22:42;;;;;;;12.87;8.47;;;;;;;8.29;68.74;96977.94;5077936;28;20410;-66
2021/11/17 03:25:20;;;;;;;15.70;8.30;;;;;;;8.33;68.21;96975.84;5095151;28;20415;-66
2021/11/17 03:28:04;;;;;;;11.70;8.17;;;;;;;8.39;67.87;96981.31;5094631;28;20455;-66
2021/11/17 03:30:35;;;;;;;11.70;7.67;;;;;;;8.37;68.21;96985.03;5074092;28;20837;-66
2021/11/17 03:33:10;;;;;;;11.50;8.77;;;;;;;8.28;68.13;96981.50;5085664;28;20450;-66
2021/11/17 03:35:35;;;;;;;13.10;8.40;;;;;;;8.08;68.72;96980.75;5088259;28;20420;-66
2021/11/17 03:38:08;;;;;;;14.57;7.57;;;;;;;8.08;68.94;96975.50;5090503;28;20426;-67
2021/11/17 03:40:49;;;;;;;14.20;8.70;;;;;;;8.32;67.97;96972.38;5085154;28;20186;-66
2021/11/17 03:43:36;;;;;;;12.40;8.00;;;;;;;8.28;68.70;96978.88;5067813;28;20852;-67
2021/11/17 03:46:13;;;;;;;11.03;8.30;;;;;;;7.91;69.58;96984.91;5082070;28;20971;-67
2021/11/17 03:48:48;;;;;;;13.87;8.70;;;;;;;8.14;68.67;96981.00;5091067;28;20415;-67
2021/11/17 03:51:20;;;;;;;12.30;8.53;;;;;;;7.33;71.27;96978.78;5086789;28;20576;-67
2021/11/17 03:54:30;;;;;;;13.23;8.27;;;;;;;7.47;72.14;96983.56;5094060;28;20911;-66
2021/11/17 03:57:34;;;;;;;13.97;8.57;;;;;;;7.57;70.85;96987.97;5089160;28;20420;-67
2021/11/17 04:00:24;;;;;;;16.07;8.73;;;;;;;7.92;70.78;96991.78;5093556;28;20438;-67
2021/11/17 04:03:21;;;;;;;12.60;7.63;;;;;;;8.05;70.22;96987.06;5094189;28;20478;-69
2021/11/17 04:06:20;;;;;;;11.10;7.70;;;;;;;8.27;69.24;96983.28;5080039;28;20790;-66
2021/11/17 04:09:17;;;;;;;13.47;7.20;;;;;;;8.27;68.90;96985.88;5088847;28;20500;-66
2021/11/17 04:11:51;;;;;;;11.90;7.90;;;;;;;8.29;68.79;96988.38;5086197;28;20440;-67
2021/11/17 04:14:29;;;;;;;13.17;8.07;;;;;;;8.42;68.39;96986.25;5073865;28;20485;-66
2021/11/17 04:17:16;;;;;;;9.43;7.73;;;;;;;8.26;68.62;96986.84;5090846;28;20477;-67
2021/11/17 04:20:19;;;;;;;11.37;7.47;;;;;;;7.60;70.34;96987.69;5089713;28;20436;-66
2021/11/17 04:22:50;;;;;;;9.53;6.60;;;;;;;7.82;69.29;96989.19;5078729;28;20458;-70
2021/11/17 04:25:44;;;;;;;9.13;5.87;;;;;;;7.80;70.21;96978.06;5077336;28;20420;-67
2021/11/17 04:28:28;;;;;;;10.27;7.10;;;;;;;8.12;68.88;96982.91;5085927;28;20550;-66
2021/11/17 04:31:22;;;;;;;9.23;7.07;;;;;;;7.97;69.66;96977.34;5068073;28;20427;-66
2021/11/17 04:34:20;;;;;;;9.67;6.93;;;;;;;7.75;70.63;96981.09;5073177;28;20436;-67
2021/11/17 04:37:00;;;;;;;11.40;7.43;;;;;;;7.60;70.46;96985.06;5059186;28;20524;-69
2021/11/17 04:40:11;;;;;;;10.70;7.10;;;;;;;7.53;71.36;96988.25;5066369;28;20424;-68
2021/11/17 04:42:59;;;;;;;11.77;7.90;;;;;;;7.65;71.65;96988.09;5075520;28;20493;-67
2021/11/17 04:45:45;;;;;;;10.10;6.47;;;;;;;7.68;71.12;96983.44;5065921;28;20428;-67
2021/11/17 04:48:55;;;;;;;11.90;7.73;;;;;;;7.19;71.88;96980.81;5080977;28;20475;-67
2021/11/17 04:51:42;;;;;;;8.43;6.10;;;;;;;7.10;73.02;96992.06;5062827;28;20432;-67
2021/11/17 04:54:39;;;;;;;12.03;7.83;;;;;;;6.81;73.91;96995.44;5069955;28;20456;-66
2021/11/17 04:57:26;;;;;;;13.50;7.57;;;;;;;6.90;73.37;96989.44;5069833;28;20432;-67
2021/11/17 05:00:27;;;;;;;12.57;7.30;;;;;;;7.48;72.27;96987.84;5063640;28;20455;-67
2021/11/17 05:03:10;;;;;;;11.23;7.90;;;;;;;7.82;70.36;96976.13;4971461;28;20956;-67
2021/11/17 05:06:07;;;;;;;8.43;6.53;;;;;;;7.90;70.33;96988.47;4964227;28;20553;-68
2021/11/17 05:08:56;;;;;;;10.33;7.27;;;;;;;7.94;69.80;96985.44;4996240;28;20467;-66
2021/11/17 05:11:49;;;;;;;15.27;8.43;;;;;;;7.97;70.31;96986.94;4989561;28;20771;-67
2021/11/17 05:14:29;;;;;;;13.47;7.77;;;;;;;7.96;69.76;96993.13;4971273;28;20964;-65
2021/11/17 05:17:02;;;;;;;12.87;8.00;;;;;;;7.79;70.54;96989.44;4971282;28;20425;-65
2021/11/17 05:19:39;;;;;;;14.50;7.50;;;;;;;7.89;70.46;96994.66;4960178;28;20429;-68
2021/11/17 05:22:20;;;;;;;10.43;7.30;;;;;;;7.77;70.07;96993.97;4978766;28;20526;-67
2021/11/17 05:25:09;;;;;;;11.70;7.50;;;;;;;7.69;70.55;96997.28;4970674;28;20536;-67
2021/11/17 05:27:41;;;;;;;11.00;7.50;;;;;;;7.67;70.80;97001.84;4986772;28;20579;-67
2021/11/17 05:30:32;;;;;;;13.07;8.80;;;;;;;7.66;70.95;97002.78;4984254;28;20437;-65
2021/11/17 05:32:57;;;;;;;11.30;7.40;;;;;;;7.63;71.78;97003.88;4986551;28;20491;-66
2021/11/17 05:36:04;;;;;;;11.00;7.37;;;;;;;7.73;71.30;97008.28;4964641;28;20464;-67
2021/11/17 05:39:08;;;;;;;19.60;8.50;;;;;;;7.82;70.63;97010.84;5069268;28;20356;-66
2021/11/17 05:41:55;;;;;;;12.30;7.30;;;;;;;7.41;72.35;97010.22;5066213;28;20444;-67
2021/11/17 05:44:30;;;;;;;13.53;7.67;;;;;;;7.28;72.51;97014.88;5075776;28;20471;-67
2021/11/17 05:46:59;;;;;;;9.90;7.37;;;;;;;7.55;72.30;97013.38;5075402;28;20532;-66
2021/11/17 05:49:40;;;;;;;11.53;7.80;;;;;;;7.81;70.95;97011.00;5078438;28;20413;-66
2021/11/17 05:52:11;;;;;;;14.93;7.90;;;;;;;7.78;70.02;97019.09;5067305;28;20469;-67
2021/11/17 05:54:49;;;;;;;14.10;8.30;;;;;;;7.68;70.51;97019.94;5068479;28;20436;-65
2021/11/17 05:57:40;;;;;;;14.90;8.20;;;;;;;7.60;70.88;97021.59;5061950;28;20421;-66
2021/11/17 06:00:13;;;;;;;13.13;7.50;;;;;;;7.65;71.46;97017.59;5074664;28;20505;-66
2021/11/17 06:03:12;;;;;;;9.80;7.30;;;;;;;7.20;72.06;97028.59;5073582;28;20511;-67
2021/11/17 06:05:38;;;;;;;11.50;7.73;;;;;;;7.56;72.04;97039.31;5077996;28;20761;-67
2021/11/17 06:08:03;;;;;;;10.20;7.20;;;;;;;7.88;71.01;97043.41;5079735;28;20456;-66
2021/11/17 06:10:31;;;;;;;12.60;8.30;;;;;;;7.97;70.83;97041.75;5080009;28;20182;-67
2021/11/17 06:12:58;;;;;;;10.73;8.10;;;;;;;7.48;71.72;97045.22;5071083;28;20196;-66
2021/11/17 06:15:24;;;;;;;10.40;7.13;;;;;;;7.45;71.45;97042.88;5078404;28;20422;-66
2021/11/17 06:17:52;;;;;;;10.13;7.00;;;;;;;7.33;71.47;97042.19;5062840;28;20424;-66
2021/11/17 06:20:19;;;;;;;11.40;7.40;;;;;;;7.21;71.75;97048.47;5070160;28;20429;-66
2021/11/17 06:22:48;;;;;;;12.60;7.40;;;;;;;7.25;72.14;97044.63;5069697;28;20845;-68
2021/11/17 06:25:15;;;;;;;11.03;7.23;;;;;;;7.28;72.47;97046.16;5045443;28;20424;-66
2021/11/17 06:27:43;;;;;;;13.63;7.90;;;;;;;7.52;71.95;97054.41;5071171;28;20468;-66
2021/11/17 06:30:14;;;;;;;16.43;7.77;;;;;;;7.22;72.32;97053.53;5060992;28;20459;-68
2021/11/17 06:32:40;;;;;;;10.40;7.03;;;;;;;7.40;72.45;97059.88;5070050;28;20516;-66
2021/11/17 06:35:06;;;;;;;15.07;6.90;;;;;;;7.40;72.87;97062.47;5070921;28;20523;-65
2021/11/17 06:37:31;;;;;;;10.53;6.73;;;;;;;7.44;71.81;97064.69;5068218;28;20266;-67
2021/11/17 06:40:00;;;;;;;12.57;7.60;;;;;;;7.49;71.57;97059.91;5088656;28;20416;-68
2021/11/17 06:42:33;;;;;;;13.27;7.63;;;;;;;7.34;71.94;97071.66;5082876;28;20665;-69
2021/11/17 06:44:59;;;;;;;11.87;7.77;;;;;;;7.48;72.15;97066.06;5091698;28;20485;-67
2021/11/17 06:47:25;;;;;;;29.43;11.50;;;;;;;7.65;71.48;97071.56;5090816;28;20459;-67
2021/11/17 06:49:53;;;;;;;20.80;9.10;;;;;;;7.67;70.73;97064.44;5091589;28;20191;-67
2021/11/17 06:52:21;;;;;;;25.40;8.70;;;;;;;7.47;71.23;97077.47;5090178;28;20173;-67
2021/11/17 06:54:46;;;;;;;22.77;9.00;;;;;;;7.23;71.75;97073.44;5091967;28;20497;-66
2021/11/17 06:57:12;;;;;;;80.53;19.60;;;;;;;7.55;71.40;97086.41;5095428;28;20814;-67
2021/11/17 06:59:38;;;;;;;52.80;16.10;;;;;;;7.60;70.93;97076.38;5087774;28;20184;-66
2021/11/17 07:02:06;;;;;;;32.57;13.63;;;;;;;7.43;71.18;97077.88;5093513;28;20235;-66
2021/11/17 07:04:33;;;;;;;17.30;8.27;;;;;;;7.38;71.59;97075.66;5086371;28;20213;-67
2021/11/17 07:06:59;;;;;;;24.97;9.80;;;;;;;7.40;71.09;97078.97;5094782;28;20826;-69
2021/11/17 07:09:25;;;;;;;46.53;14.53;;;;;;;7.76;70.68;97081.88;5081925;28;20503;-66
2021/11/17 07:11:51;;;;;;;21.60;8.30;;;;;;;7.74;69.86;97098.63;5095049;28;20432;-65
2021/11/17 07:14:21;;;;;;;11.90;6.73;;;;;;;7.66;70.86;97104.53;5094879;28;20197;-66
2021/11/17 07:16:46;;;;;;;13.60;6.80;;;;;;;7.66;71.04;97115.78;5091144;28;20903;-66
2021/11/17 07:19:12;;;;;;;12.70;6.80;;;;;;;7.43;71.58;97116.97;5091304;28;20423;-66
2021/11/17 07:21:41;;;;;;;15.73;7.20;;;;;;;7.75;71.11;97118.53;5084532;28;20202;-67
2021/11/17 07:24:07;;;;;;;12.10;7.10;;;;;;;7.91;70.43;97115.38;5094445;28;20568;-66
2021/11/17 07:26:32;;;;;;;10.60;6.77;;;;;;;7.60;71.26;97121.53;5095044;28;20513;-67
2021/11/17 07:28:58;;;;;;;11.40;7.30;;;;;;;7.91;70.54;97123.22;5094324;28;20186;-66
2021/11/17 07:31:24;;;;;;;12.10;7.13;;;;;;;7.53;72.29;97118.66;5094911;28;20178;-68
2021/11/17 07:33:49;;;;;;;15.10;9.40;;;;;;;7.53;71.05;97113.44;5094602;28;20216;-67
2021/11/17 07:36:16;;;;;;;15.07;7.77;;;;;;;7.29;72.69;97128.63;5086513;28;20182;-66
2021/11/17 07:38:43;;;;;;;9.93;6.33;;;;;;;7.20;72.77;97138.06;5080943;28;20263;-66
2021/11/17 07:41:08;;;;;;;10.63;6.20;;;;;;;7.47;72.66;97134.81;5094567;28;20517;-67
2021/11/17 07:43:34;;;;;;;12.30;6.83;;;;;;;7.74;71.14;97137.75;5094524;28;20531;-65
2021/11/17 07:46:00;;;;;;;14.70;7.90;;;;;;;7.56;71.26;97129.78;5094221;28;20190;-66
2021/11/17 07:48:27;;;;;;;17.90;9.27;;;;;;;7.76;71.36;97138.44;5094216;28;20516;-65
2021/11/17 07:50:55;;;;;;;21.90;12.43;;;;;;;7.73;70.66;97133.50;5092913;28;20273;-68
2021/11/17 07:53:22;;;;;;;10.57;6.87;;;;;;;7.39;71.41;97139.91;5083527;28;21027;-66
2021/11/17 07:55:50;;;;;;;11.70;6.30;;;;;;;7.44;71.86;97148.13;5094870;28;20469;-65
2021/11/17 07:58:17;;;;;;;9.73;6.43;;;;;;;7.59;70.82;97147.75;5096044;28;20514;-66
2021/11/17 08:00:47;;;;;;;12.20;6.20;;;;;;;7.48;71.01;97159.13;5075473;28;20483;-67
2021/11/17 08:03:13;;;;;;;11.00;7.83;;;;;;;7.57;71.06;97149.66;5069126;28;20587;-65
2021/11/17 08:05:40;;;;;;;9.23;5.83;;;;;;;7.74;70.49;97151.63;5073368;28;20512;-65
2021/11/17 08:08:05;;;;;;;8.60;5.93;;;;;;;7.58;70.39;97157.38;5070534;28;20268;-69
2021/11/17 08:10:35;;;;;;;11.80;7.10;;;;;;;7.94;70.22;97156.88;5071750;28;20965;-65
2021/11/17 08:13:01;;;;;;;9.53;7.23;;;;;;;7.39;71.38;97150.31;5069695;28;20306;-65
2021/11/17 08:15:27;;;;;;;10.00;6.50;;;;;;;7.33;71.44;97161.28;5072366;28;20492;-66
2021/11/17 08:17:52;;;;;;;10.30;6.90;;;;;;;7.34;71.61;97165.53;5066558;28;20606;-66
2021/11/17 08:20:18;;;;;;;15.00;8.67;;;;;;;7.81;71.36;97167.56;5067846;28;20269;-65
2021/11/17 08:22:47;;;;;;;13.77;7.90;;;;;;;7.97;70.10;97177.44;5063415;28;20626;-65
2021/11/17 08:25:15;;;;;;;9.47;8.07;;;;;;;7.75;70.66;97173.34;5072971;28;20189;-65
2021/11/17 08:27:41;;;;;;;11.97;6.83;;;;;;;7.99;69.94;97172.94;5084315;28;20510;-66
2021/11/17 08:30:10;;;;;;;8.77;6.13;;;;;;;7.84;70.37;97170.72;5077995;28;20452;-65
2021/11/17 08:32:37;;;;;;;10.70;7.97;;;;;;;7.94;69.30;97172.53;5085095;28;20174;-66
2021/11/17 08:35:04;;;;;;;8.80;4.87;;;;;;;7.88;69.00;97167.84;5083873;28;20488;-64
2021/11/17 08:37:31;;;;;;;7.90;5.93;;;;;;;7.84;70.07;97182.94;5084077;28;20421;-67
2021/11/17 08:40:09;;;;;;;6.73;5.23;;;;;;;8.01;69.08;97176.22;5087270;28;20428;-68
2021/11/17 08:42:35;;;;;;;9.33;4.80;;;;;;;7.47;70.18;97180.97;5093313;28;20507;-67
2021/11/17 08:45:00;;;;;;;14.03;5.10;;;;;;;7.76;69.94;97178.41;5085244;28;20454;-65
2021/11/17 08:47:27;;;;;;;8.10;4.90;;;;;;;7.69;69.76;97185.09;5084572;28;20265;-67
2021/11/17 08:49:54;;;;;;;8.60;4.90;;;;;;;7.27;70.98;97182.69;5068625;28;20179;-66
2021/11/17 08:52:21;;;;;;;9.03;5.57;;;;;;;7.96;70.31;97178.41;5093264;28;20514;-66
2021/11/17 08:54:47;;;;;;;59.67;13.63;;;;;;;7.65;69.91;97179.34;5091221;28;20452;-67
2021/11/17 08:57:16;;;;;;;8.23;4.93;;;;;;;8.05;68.86;97176.78;5092435;28;20863;-67
2021/11/17 08:59:42;;;;;;;7.43;4.80;;;;;;;7.86;69.18;97177.59;5084111;28;20516;-66
2021/11/17 09:02:08;;;;;;;6.70;4.00;;;;;;;8.01;68.69;97181.44;5077810;28;20427;-65
2021/11/17 09:04:33;;;;;;;27.70;8.63;;;;;;;7.91;68.62;97184.03;5086077;28;20443;-66
2021/11/17 09:06:59;;;;;;;8.97;4.67;;;;;;;7.76;69.61;97181.00;5071110;28;20211;-65
2021/11/17 09:09:25;;;;;;;13.40;7.33;;;;;;;7.34;70.51;97192.44;5075858;28;20180;-66
2021/11/17 09:11:52;;;;;;;9.20;5.73;;;;;;;7.62;70.25;97184.00;5092553;28;20415;-66
2021/11/17 09:14:18;;;;;;;17.77;6.40;;;;;;;7.90;69.54;97182.38;5091993;28;20205;-67
2021/11/17 09:16:44;;;;;;;28.80;9.33;;;;;;;7.21;70.15;97187.44;5080969;28;20435;-66
2021/11/17 09:19:09;;;;;;;22.37;11.07;;;;;;;7.36;70.83;97200.13;5090410;28;20412;-66
2021/11/17 09:21:37;;;;;;;14.50;5.83;;;;;;;7.40;70.67;97195.47;5087214;28;20179;-67
2021/11/17 09:24:06;;;;;;;12.30;11.00;;;;;;;7.70;69.74;97205.00;5089731;28;20217;-67
2021/11/17 09:26:32;;;;;;;4.47;3.33;;;;;;;7.26;69.94;97205.28;5091639;28;20524;-69
2021/11/17 09:28:59;;;;;;;11.90;6.30;;;;;;;7.16;70.52;97218.31;5090344;28;20434;-67
2021/11/17 09:31:27;;;;;;;4.33;3.93;;;;;;;6.87;71.43;97224.19;5084734;28;20427;-65
2021/11/17 09:33:53;;;;;;;4.90;4.07;;;;;;;7.20;71.03;97222.28;5072593;28;20532;-65
2021/11/17 09:36:21;;;;;;;13.03;4.60;;;;;;;6.96;70.97;97229.56;5075252;28;20871;-63
2021/11/17 09:38:50;;;;;;;7.63;6.47;;;;;;;6.41;72.93;97222.81;5077887;28;21136;-64
2021/11/17 09:41:20;;;;;;;3.40;2.60;;;;;;;6.73;71.98;97227.13;5075821;28;20768;-69
2021/11/17 09:43:48;;;;;;;3.93;2.93;;;;;;;6.65;72.61;97232.97;5091665;28;20439;-67
2021/11/17 09:46:19;;;;;;;4.40;3.03;;;;;;;6.86;72.17;97230.34;5057276;28;20439;-66
2021/11/17 09:48:46;;;;;;;11.60;3.63;;;;;;;6.90;71.39;97236.97;5065036;28;20482;-67
2021/11/17 09:51:13;;;;;;;4.20;3.80;;;;;;;6.75;71.57;97238.25;5091376;28;20416;-67
2021/11/17 09:53:45;;;;;;;6.17;3.80;;;;;;;6.82;71.82;97238.56;5078464;28;20797;-66
2021/11/17 09:56:19;;;;;;;4.93;3.70;;;;;;;6.97;71.76;97241.66;5091647;28;20795;-64
2021/11/17 09:58:50;;;;;;;4.47;3.47;;;;;;;7.23;70.02;97231.66;5090152;28;20416;-65
2021/11/17 10:01:40;;;;;;;8.50;6.50;;;;;;;7.20;70.22;97242.34;5077097;28;20507;-65
2021/11/17 10:04:21;;;;;;;26.40;22.13;;;;;;;7.27;70.33;97255.66;5083723;28;20540;-65
2021/11/17 10:13:07;;;;;;;7.80;7.03;;;;;;;7.60;69.26;97243.31;5081569;28;20420;-68
2021/11/17 10:15:37;;;;;;;4.23;3.83;;;;;;;7.56;68.67;97242.75;5076434;28;20416;-66
2021/11/17 10:18:21;;;;;;;4.47;3.60;;;;;;;7.16;69.11;97248.75;5070883;28;20447;-66
2021/11/17 10:20:47;;;;;;;6.67;4.13;;;;;;;7.29;69.38;97256.38;5088884;28;20412;-67
2021/11/17 10:23:18;;;;;;;3.60;2.90;;;;;;;7.15;69.69;97257.53;5082145;28;20964;-69
2021/11/17 10:25:52;;;;;;;4.73;3.80;;;;;;;7.12;70.88;97250.78;5089774;28;20182;-68
2021/11/17 10:28:25;;;;;;;4.47;3.50;;;;;;;7.54;69.25;97242.03;5074613;28;20466;-66
2021/11/17 10:30:50;;;;;;;4.33;3.20;;;;;;;7.17;69.97;97256.47;5089339;28;20576;-67
2021/11/17 10:33:39;;;;;;;5.23;4.73;;;;;;;7.06;69.80;97259.13;5087111;28;21027;-67
2021/11/17 10:36:24;;;;;;;5.93;3.87;;;;;;;7.26;68.13;97252.22;5089531;28;20236;-66
2021/11/17 10:39:06;;;;;;;5.40;3.57;;;;;;;7.53;67.85;97246.44;5077253;28;20418;-68
2021/11/17 10:41:32;;;;;;;8.23;3.30;;;;;;;7.88;66.71;97246.94;5091624;28;20770;-65
2021/11/17 10:44:05;;;;;;;4.00;3.10;;;;;;;7.88;67.10;97240.91;5091491;28;20468;-66
2021/11/17 10:46:34;;;;;;;3.90;3.43;;;;;;;7.92;66.90;97237.06;5075234;28;20456;-64
2021/11/17 10:49:10;;;;;;;4.27;2.40;;;;;;;7.63;67.33;97222.19;5066816;28;20456;-65
2021/11/17 10:51:54;;;;;;;10.10;3.40;;;;;;;7.91;67.04;97238.84;5078510;28;20441;-65
2021/11/17 10:54:24;;;;;;;2.90;2.60;;;;;;;8.15;64.83;97232.41;5069429;28;20518;-68
2021/11/17 10:57:09;;;;;;;3.47;2.77;;;;;;;8.49;64.47;97231.22;5084332;28;20431;-68
2021/11/17 10:59:36;;;;;;;4.03;3.10;;;;;;;8.60;63.56;97228.47;5072953;28;20435;-66
2021/11/17 11:02:03;;;;;;;3.47;2.60;;;;;;;8.21;63.77;97225.81;5079750;28;20486;-65
2021/11/17 11:04:34;;;;;;;2.20;1.80;;;;;;;8.37;62.33;97220.88;5085761;28;20444;-67
2021/11/17 11:07:17;;;;;;;3.87;2.40;;;;;;;8.35;63.38;97222.00;5089530;28;20861;-67
2021/11/17 11:09:47;;;;;;;2.47;2.27;;;;;;;8.34;64.01;97220.34;5075004;28;20423;-66
2021/11/17 11:12:17;;;;;;;2.50;2.30;;;;;;;8.71;62.72;97217.84;5072392;28;20420;-69
2021/11/17 11:14:50;;;;;;;2.60;2.40;;;;;;;8.27;63.33;97214.84;5085126;28;20447;-66
2021/11/17 11:18:05;;;;;;;2.83;2.07;;;;;;;8.41;61.43;97211.81;5070063;28;20415;-66
2021/11/17 11:20:46;;;;;;;2.43;2.23;;;;;;;8.73;61.01;97213.31;5039728;28;20535;-66
2021/11/17 11:23:32;;;;;;;2.80;2.50;;;;;;;8.58;61.12;97225.16;5083336;28;20775;-66
2021/11/17 11:26:16;;;;;;;2.47;2.00;;;;;;;8.40;60.99;97230.22;5077815;28;20878;-67
2021/11/17 11:28:49;;;;;;;2.27;2.07;;;;;;;8.18;63.11;97231.34;5081022;28;20424;-68
2021/11/17 11:31:36;;;;;;;3.43;2.40;;;;;;;8.19;62.87;97240.81;5078064;28;20444;-67
2021/11/17 11:34:02;;;;;;;4.27;3.63;;;;;;;8.24;62.22;97236.00;5101280;28;20451;-66
2021/11/17 11:36:44;;;;;;;5.20;1.60;;;;;;;7.75;63.57;97249.00;5098153;28;20536;-66
2021/11/17 11:39:09;;;;;;;4.73;3.57;;;;;;;7.67;63.86;97244.44;5082307;28;20349;-66
2021/11/17 11:42:01;;;;;;;4.00;3.30;;;;;;;8.19;63.09;97249.47;5091269;28;20433;-68
2021/11/17 11:44:48;;;;;;;1.87;1.70;;;;;;;7.53;64.20;97243.84;5080999;28;20224;-67
2021/11/17 11:47:13;;;;;;;2.17;1.97;;;;;;;7.70;63.94;97238.94;5092222;28;20465;-67
2021/11/17 11:49:50;;;;;;;3.93;2.90;;;;;;;7.64;63.39;97229.03;5094024;28;20494;-66
2021/11/17 11:52:19;;;;;;;3.23;2.93;;;;;;;7.64;62.75;97229.84;5077896;28;20189;-66
2021/11/17 11:54:51;;;;;;;2.13;1.93;;;;;;;7.81;62.22;97232.78;5093890;28;20525;-68
2021/11/17 11:57:52;;;;;;;3.30;2.70;;;;;;;8.01;62.27;97236.25;5068160;28;20411;-66
2021/11/17 12:00:35;;;;;;;2.90;2.57;;;;;;;7.88;62.58;97240.91;5080757;28;20428;-66
2021/11/17 12:03:07;;;;;;;3.93;3.20;;;;;;;7.86;62.30;97232.38;5089816;28;20428;-64
2021/11/17 12:05:35;;;;;;;20.37;10.60;;;;;;;7.98;61.81;97229.53;5089555;28;20423;-67
2021/11/17 12:08:26;;;;;;;4.70;4.07;;;;;;;8.10;61.19;97234.63;5082559;28;20456;-66
2021/11/17 12:11:01;;;;;;;97.37;42.33;;;;;;;7.93;61.64;97228.28;5084660;28;20417;-66
2021/11/17 12:13:31;;;;;;;172.03;72.80;;;;;;;7.47;62.49;97233.94;5074179;28;20442;-68
2021/11/17 12:16:07;;;;;;;61.93;31.23;;;;;;;7.42;63.40;97233.50;5083024;28;20424;-65
2021/11/17 12:18:51;;;;;;;7.50;5.43;;;;;;;7.66;63.78;97238.38;5084559;28;20420;-66
2021/11/17 12:21:33;;;;;;;4.00;3.37;;;;;;;6.95;66.07;97246.16;5074895;28;20420;-66
2021/11/17 12:24:01;;;;;;;2.80;2.60;;;;;;;7.41;64.93;97242.28;5091534;28;20519;-66
2021/11/17 12:26:27;;;;;;;5.73;3.70;;;;;;;7.33;65.54;97257.75;5093575;28;20443;-66
2021/11/17 12:29:16;;;;;;;4.30;2.90;;;;;;;7.54;64.39;97247.25;5093088;28;20479;-66
2021/11/17 12:32:09;;;;;;;3.20;2.90;;;;;;;7.06;66.30;97256.50;5091844;28;20265;-65
2021/11/17 12:34:44;;;;;;;3.00;2.60;;;;;;;7.60;64.62;97249.34;5074926;28;20836;-67
2021/11/17 12:37:17;;;;;;;4.00;3.60;;;;;;;7.59;64.40;97244.25;5089810;28;20439;-65
2021/11/17 12:40:01;;;;;;;3.50;2.77;;;;;;;7.32;65.29;97240.44;5085746;28;20971;-65
2021/11/17 12:42:34;;;;;;;3.70;2.90;;;;;;;7.63;64.51;97232.59;5080241;28;20507;-66
2021/11/17 12:45:12;;;;;;;5.03;3.63;;;;;;;7.77;64.05;97247.06;5093077;28;21238;-66
2021/11/17 12:47:46;;;;;;;2.63;2.43;;;;;;;7.62;64.16;97225.75;5093362;28;20447;-66
2021/11/17 12:50:14;;;;;;;4.50;3.00;;;;;;;7.58;64.64;97232.16;5093223;28;20423;-67
2021/11/17 12:53:00;;;;;;;3.40;2.57;;;;;;;7.42;65.45;97241.34;5088626;28;20907;-70
2021/11/17 12:55:35;;;;;;;9.30;5.40;;;;;;;7.75;63.76;97241.97;5082959;28;20515;-65
2021/11/17 12:58:34;;;;;;;5.00;2.63;;;;;;;7.34;64.23;97228.94;5091387;28;20951;-66
2021/11/17 13:01:14;;;;;;;2.13;1.93;;;;;;;7.87;63.05;97234.03;5079141;28;20437;-66
2021/11/17 13:03:49;;;;;;;2.50;2.30;;;;;;;7.76;63.05;97233.19;5091082;28;20800;-66
2021/11/17 13:06:35;;;;;;;2.70;2.47;;;;;;;7.65;63.77;97238.53;5076447;28;20450;-68
2021/11/17 13:09:19;;;;;;;2.83;2.30;;;;;;;7.42;64.34;97246.56;5079038;28;20416;-68
2021/11/17 13:11:52;;;;;;;3.53;2.43;;;;;;;7.60;63.65;97248.50;5084830;28;20429;-67
2021/11/17 13:14:22;;;;;;;4.10;3.40;;;;;;;7.61;63.22;97252.78;5077062;28;20484;-65
2021/11/17 13:16:49;;;;;;;7.43;2.80;;;;;;;7.55;63.24;97245.50;5089389;28;20909;-66
2021/11/17 13:19:31;;;;;;;3.03;2.73;;;;;;;7.58;63.44;97251.28;5092604;28;20465;-67
2021/11/17 13:21:59;;;;;;;2.23;1.80;;;;;;;7.82;63.06;97248.31;5085691;28;20481;-68
2021/11/17 13:24:34;;;;;;;3.90;2.23;;;;;;;7.86;62.84;97242.81;5092900;28;20519;-69
2021/11/17 13:27:07;;;;;;;1.93;1.80;;;;;;;7.62;63.71;97236.16;5091164;28;20466;-66
2021/11/17 13:30:11;;;;;;;2.20;2.00;;;;;;;7.32;63.75;97245.66;5078608;28;20412;-67
2021/11/17 13:32:38;;;;;;;2.13;1.60;;;;;;;7.59;62.98;97241.66;5080456;28;20411;-66
2021/11/17 13:35:22;;;;;;;2.67;2.03;;;;;;;7.86;62.10;97242.81;5074048;28;20861;-66
2021/11/17 13:37:49;;;;;;;3.97;3.00;;;;;;;8.23;61.87;97239.56;5078721;28;20764;-66
2021/11/17 13:40:20;;;;;;;3.40;2.60;;;;;;;8.32;61.84;97253.59;5076413;28;20452;-67
2021/11/17 13:42:47;;;;;;;3.40;2.80;;;;;;;8.14;61.18;97249.03;5080580;28;20422;-68
2021/11/17 13:45:27;;;;;;;2.47;2.27;;;;;;;7.72;63.16;97250.06;5092383;28;20435;-67
2021/11/17 13:47:53;;;;;;;4.03;2.63;;;;;;;7.47;63.34;97259.19;5091712;28;20484;-67
2021/11/17 13:50:23;;;;;;;6.90;3.57;;;;;;;7.34;63.57;97262.84;5092312;28;20465;-66
2021/11/17 13:52:49;;;;;;;8.63;5.80;;;;;;;8.08;61.66;97260.84;5091759;28;20416;-71
2021/11/17 13:55:21;;;;;;;4.77;2.50;;;;;;;7.73;62.73;97262.16;5075635;28;20424;-66
2021/11/17 13:57:47;;;;;;;13.77;8.73;;;;;;;7.54;63.71;97257.69;5073747;28;20412;-67
2021/11/17 14:00:17;;;;;;;19.23;11.10;;;;;;;7.95;61.77;97262.88;5077191;28;20520;-68
2021/11/17 14:02:45;;;;;;;11.50;5.13;;;;;;;7.55;63.10;97256.75;5079058;28;20423;-67
2021/11/17 14:05:12;;;;;;;16.17;9.77;;;;;;;7.40;64.65;97256.28;5082882;28;20781;-67
2021/11/17 14:07:38;;;;;;;12.23;7.50;;;;;;;7.27;64.74;97264.31;5074899;28;20544;-66
2021/11/17 14:10:05;;;;;;;19.83;9.73;;;;;;;7.45;64.90;97261.91;5088757;28;20423;-67
2021/11/17 14:12:31;;;;;;;14.30;8.13;;;;;;;7.73;64.19;97256.94;5092108;28;20423;-66
2021/11/17 14:14:56;;;;;;;6.00;3.30;;;;;;;7.64;64.77;97260.34;5085758;28;20974;-66
2021/11/17 14:17:22;;;;;;;4.83;3.93;;;;;;;7.79;64.43;97250.34;5090184;28;20177;-67
2021/11/17 14:19:49;;;;;;;4.77;3.90;;;;;;;7.70;64.65;97257.19;5092077;28;20178;-65
2021/11/17 14:22:14;;;;;;;10.83;5.40;;;;;;;7.93;64.31;97265.63;5084329;28;20264;-67
2021/11/17 14:24:40;;;;;;;6.00;4.03;;;;;;;8.24;63.11;97256.88;5084589;28;20612;-67
2021/11/17 14:27:08;;;;;;;5.53;4.33;;;;;;;8.22;63.08;97261.41;5090278;28;20205;-67
2021/11/17 14:29:38;;;;;;;10.40;5.73;;;;;;;8.25;63.01;97261.16;5078843;28;20251;-66
2021/11/17 14:32:21;;;;;;;8.30;5.30;;;;;;;7.78;64.08;97257.38;5089742;28;20412;-69
2021/11/17 14:34:47;;;;;;;9.43;5.60;;;;;;;8.15;63.24;97259.38;5091382;28;20516;-67
2021/11/17 14:37:12;;;;;;;5.57;4.33;;;;;;;8.12;62.97;97271.88;5088469;28;20412;-67
2021/11/17 14:39:41;;;;;;;7.33;5.07;;;;;;;7.95;63.01;97273.31;5082453;28;20185;-65
2021/11/17 14:42:08;;;;;;;8.20;5.30;;;;;;;7.79;64.40;97274.69;5083907;28;20552;-66
2021/11/17 14:44:34;;;;;;;11.10;3.60;;;;;;;7.76;64.06;97268.88;5092645;28;20447;-63
2021/11/17 14:46:59;;;;;;;5.90;4.13;;;;;;;8.02;62.83;97274.47;5092530;28;20631;-66